createdAt,value
2023-05-11T03:00:29.651Z,10.80
2023-05-11T03:02:57.965Z,10.80
2023-05-11T03:05:26.120Z,10.80
2023-05-11T03:07:57.867Z,10.80
2023-05-11T03:10:27.573Z,10.80
2023-05-11T03:12:56.228Z,10.80
2023-05-11T03:15:26.093Z,10.70
2023-05-11T03:17:58.090Z,10.70
2023-05-11T03:20:27.180Z,10.70
2023-05-11T03:22:56.699Z,10.70
2023-05-11T03:25:25.820Z,10.80
2023-05-11T03:27:55.372Z,10.70
2023-05-11T03:30:24.184Z,10.70
2023-05-11T03:32:56.480Z,10.70
2023-05-11T03:35:29.988Z,10.70
2023-05-11T03:37:59.538Z,10.80
2023-05-11T03:40:31.552Z,10.70
2023-05-11T03:43:02.966Z,10.70
2023-05-11T03:45:32.767Z,10.70
2023-05-11T03:48:09.180Z,10.70
2023-05-11T03:50:39.328Z,10.70
2023-05-11T03:53:07.678Z,10.70
2023-05-11T03:55:35.770Z,10.70
2023-05-11T03:58:07.590Z,10.80
2023-05-11T04:00:39.681Z,10.80
2023-05-11T04:03:09.641Z,10.80
2023-05-11T04:05:39.730Z,10.70
2023-05-11T04:08:11.425Z,10.70
2023-05-11T04:10:39.394Z,10.80
2023-05-11T04:13:07.241Z,10.80
2023-05-11T04:15:35.528Z,10.70
2023-05-11T04:18:04.774Z,10.70
2023-05-11T04:20:34.754Z,10.60
2023-05-11T04:23:02.659Z,10.60
2023-05-11T04:25:32.098Z,10.60
2023-05-11T04:27:59.929Z,10.60
2023-05-11T04:30:27.774Z,10.70
2023-05-11T04:32:55.795Z,10.70
2023-05-11T04:35:24.708Z,10.70
2023-05-11T04:37:54.891Z,10.70
2023-05-11T04:40:23.001Z,10.80
2023-05-11T04:42:51.632Z,10.80
2023-05-11T04:45:21.101Z,10.80
2023-05-11T04:47:49.054Z,10.80
2023-05-11T04:50:17.451Z,10.80
2023-05-11T04:52:46.023Z,10.70
2023-05-11T04:55:16.150Z,10.70
2023-05-11T04:57:44.177Z,10.70
2023-05-11T05:00:12.922Z,10.80
2023-05-11T05:02:40.872Z,10.80
2023-05-11T05:05:09.714Z,10.90
2023-05-11T05:07:37.599Z,11.00
2023-05-11T05:10:08.832Z,10.90
2023-05-11T05:12:38.120Z,10.90
2023-05-11T05:15:07.217Z,11.00
2023-05-11T05:17:36.599Z,11.00
2023-05-11T05:20:04.931Z,11.00
2023-05-11T05:22:32.853Z,11.10
2023-05-11T05:25:00.995Z,11.10
2023-05-11T05:27:28.993Z,11.20
2023-05-11T05:29:59.499Z,11.20
2023-05-11T05:32:28.087Z,11.30
2023-05-11T05:34:56.143Z,11.40
2023-05-11T05:37:24.093Z,11.40
2023-05-11T05:39:51.978Z,11.40
2023-05-11T05:42:19.914Z,11.60
2023-05-11T05:44:47.766Z,11.60
2023-05-11T05:47:17.060Z,11.70
2023-05-11T05:49:45.672Z,11.70
2023-05-11T05:52:13.627Z,11.70
2023-05-11T05:54:42.371Z,11.80
2023-05-11T05:57:10.481Z,11.80
2023-05-11T05:59:38.492Z,11.80
2023-05-11T06:02:07.295Z,11.80
2023-05-11T06:04:36.570Z,11.90
2023-05-11T06:07:04.421Z,12.00
2023-05-11T06:09:32.277Z,12.20
2023-05-11T06:12:00.520Z,12.20
2023-05-11T06:14:28.404Z,12.20
2023-05-11T06:16:56.423Z,12.20
2023-05-11T06:19:24.472Z,12.20
2023-05-11T06:21:54.066Z,12.30
2023-05-11T06:24:22.227Z,12.30
2023-05-11T06:26:50.524Z,12.30
2023-05-11T06:29:22.258Z,12.30
2023-05-11T06:31:52.717Z,12.20
2023-05-11T06:34:20.922Z,12.30
2023-05-11T06:36:49.102Z,12.40
2023-05-11T06:39:18.734Z,12.50
2023-05-11T06:41:46.670Z,12.60
2023-05-11T06:44:14.785Z,12.60
2023-05-11T06:46:45.759Z,12.80
2023-05-11T06:49:13.705Z,12.70
2023-05-11T06:51:41.542Z,12.70
2023-05-11T06:54:09.875Z,12.70
2023-05-11T06:56:39.337Z,12.80
2023-05-11T06:59:07.265Z,12.90
2023-05-11T07:01:35.332Z,13.10
2023-05-11T07:04:03.451Z,13.20
2023-05-11T07:06:31.350Z,13.20
2023-05-11T07:08:59.253Z,13.20
2023-05-11T07:11:27.782Z,13.20
2023-05-11T07:13:57.106Z,13.40
2023-05-11T07:16:25.002Z,13.50
2023-05-11T07:18:52.909Z,13.60
2023-05-11T07:21:22.057Z,13.70
2023-05-11T07:23:50.033Z,13.80
2023-05-11T07:26:18.071Z,13.60
2023-05-11T07:28:46.303Z,13.70
2023-05-11T07:31:15.524Z,13.70
2023-05-11T07:33:43.383Z,13.80
2023-05-11T07:36:11.396Z,13.90
2023-05-11T07:38:39.506Z,14.00
2023-05-11T07:41:10.160Z,14.10
2023-05-11T07:43:39.823Z,14.10
2023-05-11T07:46:08.071Z,14.10
2023-05-11T07:48:37.305Z,14.40
2023-05-11T07:51:07.492Z,14.50
2023-05-11T07:53:36.215Z,14.60
2023-05-11T07:56:04.665Z,14.70
2023-05-11T07:58:33.224Z,14.80
2023-05-11T08:01:01.539Z,14.80
2023-05-11T08:03:29.508Z,14.90
2023-05-11T08:05:59.066Z,15.00
2023-05-11T08:08:27.057Z,15.20
2023-05-11T08:10:55.009Z,15.30
2023-05-11T08:13:23.122Z,15.40
2023-05-11T08:15:51.043Z,15.50
2023-05-11T08:18:19.098Z,15.50
2023-05-11T08:20:46.926Z,15.60
2023-05-11T08:23:18.034Z,15.70
2023-05-11T08:25:52.814Z,15.70
2023-05-11T08:28:21.197Z,15.80
2023-05-11T08:30:55.426Z,15.80
2023-05-11T08:35:57.212Z,15.80
2023-05-11T08:38:26.681Z,16.00
2023-05-11T08:40:54.636Z,16.10
2023-05-11T08:43:25.099Z,16.30
2023-05-11T08:45:58.502Z,16.40
2023-05-11T08:48:27.083Z,16.50
2023-05-11T08:50:55.090Z,16.60
2023-05-11T08:53:24.731Z,16.70
2023-05-11T08:55:56.105Z,16.70
2023-05-11T08:58:24.420Z,16.90
2023-05-11T09:00:52.371Z,16.90
2023-05-11T09:03:21.305Z,17.00
2023-05-11T09:05:50.828Z,17.10
2023-05-11T09:08:20.128Z,17.20
2023-05-11T09:10:49.884Z,17.30
2023-05-11T09:13:19.387Z,17.30
2023-05-11T09:15:47.243Z,17.40
2023-05-11T09:18:15.129Z,17.40
2023-05-11T09:20:45.098Z,17.30
2023-05-11T09:23:17.320Z,17.50
2023-05-11T09:25:45.306Z,17.50
2023-05-11T09:28:15.656Z,17.60
2023-05-11T09:30:45.283Z,17.70
2023-05-11T09:33:13.144Z,17.90
2023-05-11T09:35:43.622Z,17.90
2023-05-11T09:38:13.035Z,18.10
2023-05-11T09:40:43.698Z,18.00
2023-05-11T09:43:19.309Z,18.10
2023-05-11T09:45:49.983Z,18.00
2023-05-11T09:48:29.241Z,18.00
2023-05-11T09:51:03.402Z,17.90
2023-05-11T09:53:40.817Z,17.90
2023-05-11T09:56:08.930Z,17.90
2023-05-11T09:58:48.110Z,17.90
2023-05-11T10:01:18.776Z,18.00
2023-05-11T10:03:48.306Z,18.10
2023-05-11T10:06:18.785Z,18.20
2023-05-11T10:08:48.775Z,18.30
2023-05-11T10:11:16.788Z,18.40
2023-05-11T10:13:46.088Z,18.10
2023-05-11T10:16:17.462Z,18.20
2023-05-11T10:18:46.874Z,18.20
2023-05-11T10:21:17.505Z,18.10
2023-05-11T10:23:45.672Z,18.10
2023-05-11T10:26:14.864Z,18.10
2023-05-11T10:28:42.883Z,18.10
2023-05-11T10:31:11.564Z,18.20
2023-05-11T10:33:42.331Z,18.10
2023-05-11T10:36:11.376Z,18.00
2023-05-11T10:38:39.680Z,18.10
2023-05-11T10:41:21.692Z,18.10
2023-05-11T10:44:11.623Z,18.20
2023-05-11T10:46:53.317Z,18.20
2023-05-11T10:49:42.418Z,18.30
2023-05-11T10:52:47.303Z,18.10
2023-05-11T10:55:23.475Z,18.10
2023-05-11T10:58:06.753Z,18.20
2023-05-11T11:01:10.792Z,18.10
2023-05-11T11:03:38.736Z,18.10
2023-05-11T11:06:22.881Z,18.00
2023-05-11T11:08:58.735Z,18.00
2023-05-11T11:11:31.013Z,18.00
2023-05-11T11:14:01.490Z,18.00
2023-05-11T11:16:29.624Z,18.00
2023-05-11T11:19:35.222Z,18.10
2023-05-11T11:22:04.554Z,18.10
2023-05-11T11:24:53.426Z,18.00
2023-05-11T11:27:57.612Z,18.00
2023-05-11T11:30:26.398Z,18.00
2023-05-11T11:32:55.974Z,18.00
2023-05-11T11:35:46.111Z,18.00
2023-05-11T11:38:17.275Z,18.10
2023-05-11T11:40:51.179Z,18.10
2023-05-11T11:43:22.051Z,18.10
2023-05-11T11:45:54.538Z,18.10
2023-05-11T11:48:24.325Z,18.10
2023-05-11T11:51:04.210Z,18.10
2023-05-11T11:54:06.846Z,18.10
2023-05-11T11:56:40.102Z,18.10
2023-05-11T11:59:10.368Z,18.10
2023-05-11T12:01:39.598Z,18.20
2023-05-11T12:04:34.849Z,18.20
2023-05-11T12:07:08.744Z,18.10
2023-05-11T12:09:39.624Z,18.10
2023-05-11T12:12:08.545Z,18.20
2023-05-11T12:14:37.108Z,18.20
2023-05-11T12:17:13.469Z,18.00
2023-05-11T12:19:43.487Z,18.10
2023-05-11T12:22:14.192Z,18.10
2023-05-11T12:24:44.284Z,18.20
2023-05-11T12:27:12.358Z,18.30
2023-05-11T12:29:41.357Z,18.30
2023-05-11T12:32:13.965Z,18.20
2023-05-11T12:34:41.988Z,17.50
2023-05-11T12:37:09.885Z,17.50
2023-05-11T12:39:39.475Z,17.40
2023-05-11T12:42:08.853Z,17.40
2023-05-11T12:44:36.863Z,17.40
2023-05-11T12:47:05.453Z,17.20
2023-05-11T12:49:33.522Z,17.30
2023-05-11T12:52:08.828Z,17.50
2023-05-11T12:54:38.641Z,17.50
2023-05-11T12:57:09.355Z,17.40
2023-05-11T12:59:38.826Z,17.30
2023-05-11T13:02:11.929Z,17.30
2023-05-11T13:04:40.957Z,17.60
2023-05-11T13:07:09.129Z,17.50
2023-05-11T13:09:37.017Z,17.60
2023-05-11T13:12:10.951Z,17.60
2023-05-11T13:14:39.153Z,17.70
2023-05-11T13:17:07.059Z,17.80
2023-05-11T13:19:35.000Z,17.80
2023-05-11T13:22:03.432Z,17.90
2023-05-11T13:24:32.305Z,17.80
2023-05-11T13:27:02.127Z,17.70
2023-05-11T13:29:31.364Z,17.50
2023-05-11T13:31:59.254Z,17.50
2023-05-11T13:34:27.209Z,17.50
2023-05-11T13:36:55.063Z,17.50
2023-05-11T13:39:22.891Z,17.70
2023-05-11T13:41:50.732Z,17.70
2023-05-11T13:44:18.562Z,17.90
2023-05-11T13:46:47.790Z,17.80
2023-05-11T13:49:15.690Z,17.90
2023-05-11T13:51:43.556Z,17.70
2023-05-11T13:54:13.098Z,17.60
2023-05-11T13:56:41.004Z,17.40
2023-05-11T13:59:09.311Z,17.20
2023-05-11T14:01:37.697Z,17.10
2023-05-11T14:04:07.134Z,17.00
2023-05-11T14:06:36.261Z,16.90
2023-05-11T14:09:04.220Z,16.80
2023-05-11T14:11:32.125Z,17.00
2023-05-11T14:14:00.738Z,17.20
2023-05-11T14:16:28.726Z,17.20
2023-05-11T14:18:56.607Z,17.10
2023-05-11T14:21:26.017Z,17.00
2023-05-11T14:24:10.060Z,17.20
2023-05-11T14:26:39.784Z,17.20
2023-05-11T14:29:08.063Z,17.10
2023-05-11T14:31:37.304Z,17.10
2023-05-11T14:34:05.828Z,17.10
2023-05-11T14:36:35.187Z,17.20
2023-05-11T14:39:03.661Z,17.10
2023-05-11T14:41:32.058Z,17.20
2023-05-11T14:43:59.963Z,17.20
2023-05-11T14:46:27.912Z,17.30
2023-05-11T14:48:55.788Z,17.20
2023-05-11T14:51:23.745Z,17.20
2023-05-11T14:53:53.083Z,17.20
2023-05-11T14:56:22.227Z,17.20
2023-05-11T14:58:50.370Z,17.30
2023-05-11T15:01:18.613Z,17.30
2023-05-11T15:03:46.739Z,17.20
2023-05-11T15:06:20.928Z,17.20
2023-05-11T15:08:48.959Z,17.20
2023-05-11T15:11:18.384Z,17.20
2023-05-11T15:13:47.394Z,17.20
2023-05-11T15:16:15.562Z,17.20
2023-05-11T15:18:43.500Z,17.10
2023-05-11T15:21:11.622Z,17.00
2023-05-11T15:23:39.547Z,17.00
2023-05-11T15:26:07.534Z,16.90
2023-05-11T15:28:36.831Z,16.90
2023-05-11T15:31:04.670Z,16.90
2023-05-11T15:33:33.297Z,16.90
2023-05-11T15:36:01.243Z,16.90
2023-05-11T15:38:29.100Z,16.80
2023-05-11T15:40:56.987Z,16.80
2023-05-11T15:43:25.112Z,16.70
2023-05-11T15:45:55.171Z,16.70
2023-05-11T15:48:23.111Z,16.50
2023-05-11T15:50:51.040Z,16.50
2023-05-11T15:53:19.210Z,16.40
2023-05-11T15:55:50.699Z,16.40
2023-05-11T15:58:18.820Z,16.40
2023-05-11T16:00:46.706Z,16.40
2023-05-11T16:03:16.348Z,16.40
2023-05-11T16:05:44.528Z,16.30
2023-05-11T16:08:12.390Z,16.30
2023-05-11T16:10:40.362Z,16.30
2023-05-11T16:13:08.753Z,16.30
2023-05-11T16:15:36.869Z,16.20
2023-05-11T16:18:05.595Z,16.20
2023-05-11T16:20:34.889Z,16.10
2023-05-11T16:23:02.764Z,16.10
2023-05-11T16:25:30.678Z,16.10
2023-05-11T16:27:58.532Z,16.00
2023-05-11T16:30:26.810Z,16.10
2023-05-11T16:32:54.809Z,16.10
2023-05-11T16:35:22.710Z,16.10
2023-05-11T16:37:52.431Z,16.10
2023-05-11T16:40:21.557Z,16.10
2023-05-11T16:42:49.890Z,16.10
2023-05-11T16:45:17.800Z,16.10
2023-05-11T16:47:46.103Z,16.00
2023-05-11T16:50:15.806Z,16.00
2023-05-11T16:52:43.846Z,15.90
2023-05-11T16:55:13.044Z,15.90
2023-05-11T16:57:40.873Z,15.90
2023-05-11T17:00:10.156Z,15.90
2023-05-11T17:02:38.137Z,15.80
2023-05-11T17:05:07.067Z,15.70
2023-05-11T17:07:35.303Z,15.50
2023-05-11T17:10:03.225Z,15.50
2023-05-11T17:12:35.412Z,15.50
2023-05-11T17:15:03.535Z,15.50
2023-05-11T17:17:31.406Z,15.30
2023-05-11T17:19:59.418Z,15.20
2023-05-11T17:22:29.636Z,15.00
2023-05-11T17:24:57.491Z,15.00
2023-05-11T17:27:25.473Z,14.90
2023-05-11T17:29:54.677Z,14.90
2023-05-11T17:32:22.924Z,14.90
2023-05-11T17:34:50.985Z,14.90
2023-05-11T17:37:30.752Z,14.90
2023-05-11T17:40:00.104Z,14.80
2023-05-11T17:42:28.269Z,14.80
2023-05-11T17:44:57.778Z,14.80
2023-05-11T17:47:25.967Z,14.80
2023-05-11T17:49:54.004Z,14.80
2023-05-11T17:52:21.875Z,14.80
2023-05-11T17:54:49.736Z,14.80
2023-05-11T17:57:17.616Z,14.80
2023-05-11T17:59:47.100Z,14.70
2023-05-11T18:02:17.036Z,14.60
2023-05-11T18:04:44.956Z,14.60
2023-05-11T18:07:12.853Z,14.60
2023-05-11T18:09:40.711Z,14.50
2023-05-11T18:12:09.740Z,14.50
2023-05-11T18:14:37.600Z,14.50
2023-05-11T18:17:05.813Z,14.60
2023-05-11T18:19:35.018Z,14.60
2023-05-11T18:22:02.916Z,14.70
2023-05-11T18:24:30.764Z,14.70
2023-05-11T18:26:58.669Z,14.70
2023-05-11T18:29:26.909Z,14.80
2023-05-11T18:31:55.979Z,14.80
2023-05-11T18:34:23.960Z,14.70
2023-05-11T18:36:53.143Z,14.70
2023-05-11T18:39:20.974Z,14.60
2023-05-11T18:41:48.856Z,14.60
2023-05-11T18:44:18.522Z,14.60
2023-05-11T18:46:46.423Z,14.60
2023-05-11T18:49:14.287Z,14.60
2023-05-11T18:51:42.291Z,14.60
2023-05-11T18:54:11.611Z,14.50
2023-05-11T18:56:39.655Z,14.30
2023-05-11T18:59:07.729Z,14.20
2023-05-11T19:01:47.021Z,14.10
2023-05-11T19:04:19.580Z,14.10
2023-05-11T19:06:47.691Z,14.10
2023-05-11T19:09:17.557Z,14.10
2023-05-11T19:11:45.453Z,14.20
2023-05-11T19:14:14.442Z,14.30
2023-05-11T19:16:42.760Z,14.30
2023-05-11T19:19:11.207Z,14.30
2023-05-11T19:21:40.399Z,14.30
2023-05-11T19:24:09.111Z,14.30
2023-05-11T19:26:39.528Z,14.30
2023-05-11T19:29:09.123Z,14.20
2023-05-11T19:31:37.146Z,14.10
2023-05-11T19:34:06.737Z,14.10
2023-05-11T19:36:34.614Z,14.00
2023-05-11T19:39:02.501Z,14.00
2023-05-11T19:41:30.390Z,13.90
2023-05-11T19:43:59.606Z,13.90
2023-05-11T19:46:27.527Z,13.90
2023-05-11T19:48:55.509Z,13.90
2023-05-11T19:51:23.393Z,14.00
2023-05-11T19:53:51.691Z,13.80
2023-05-11T19:56:19.608Z,13.90
2023-05-11T19:58:47.448Z,13.90
2023-05-11T20:01:16.670Z,13.90
2023-05-11T20:03:44.770Z,14.00
2023-05-11T20:06:12.765Z,14.00
2023-05-11T20:08:40.641Z,14.10
2023-05-11T20:11:08.557Z,13.90
2023-05-11T20:13:36.497Z,13.80
2023-05-11T20:16:04.549Z,13.80
2023-05-11T20:18:33.815Z,13.90
2023-05-11T20:21:01.696Z,13.80
2023-05-11T20:23:29.590Z,13.80
2023-05-11T20:25:57.445Z,13.70
2023-05-11T20:28:27.134Z,13.70
2023-05-11T20:30:55.846Z,13.50
2023-05-11T20:35:55.863Z,13.40
2023-05-11T20:38:23.724Z,13.40
2023-05-11T20:40:56.263Z,13.50
2023-05-11T20:43:25.546Z,13.60
2023-05-11T20:45:53.874Z,13.50
2023-05-11T20:48:32.456Z,13.50
2023-05-11T20:51:08.774Z,13.40
2023-05-11T20:53:36.767Z,13.40
2023-05-11T20:56:04.728Z,13.50
2023-05-11T20:58:32.718Z,13.40
2023-05-11T21:01:00.927Z,13.40
2023-05-11T21:03:28.860Z,13.40
2023-05-11T21:05:57.210Z,13.40
2023-05-11T21:08:26.489Z,13.50
2023-05-11T21:10:54.328Z,13.50
2023-05-11T21:13:22.224Z,13.50
2023-05-11T21:15:50.120Z,13.50
2023-05-11T21:18:18.219Z,13.60
2023-05-11T21:20:46.274Z,13.60
2023-05-11T21:23:14.273Z,13.60
2023-05-11T21:25:43.798Z,13.60
2023-05-11T21:28:11.658Z,13.50
2023-05-11T21:30:39.558Z,13.40
2023-05-11T21:33:07.459Z,13.40
2023-05-11T21:35:35.389Z,13.30
2023-05-11T21:38:03.280Z,13.30
2023-05-11T21:40:31.121Z,13.30
2023-05-11T21:43:00.396Z,13.30
2023-05-11T21:45:28.260Z,13.30
2023-05-11T21:47:57.985Z,13.30
2023-05-11T21:50:26.022Z,13.20
2023-05-11T21:52:53.868Z,13.10
2023-05-11T21:55:23.154Z,13.10
2023-05-11T21:57:51.448Z,12.90
